Aérodrome :
LOGIN :

S'inscrire | Disclaimer

   EN    FR    IT 

 










Légende :    VFR   VFR Marginal   IFR   IFR Intensif   IFR Très Intensif
Visi : 
Plafond : 
>= 8 km
>= 3000ft
5 à 8 km
1000 à 3000 ft
1500m à 5 km
500 à 1000 ft
800 à 1500m
200 à 500 ft
< 800m
< 200 ft
Symboles :   Orages  Brouillard  Fortes neiges  Fortes précipitations  Vent > 20 kt
SIGMETs :   Divers  Orages  Givrage  Turbulence  Onde Orograph.  Cendres Volcan.






- Altitude de l'aérodrome : 203 ft
- Code IATA : XMJ


LFBM - Mont-De-Marsan

DERNIER METAR :
  • 272030Z AUTO 26005KT 9999 FEW006 BKN010 OVC018 11/10 Q1021 BECMG OVC030

METARs EXPIRÉS :
  • 272000Z AUTO 26006KT 9999 BKN011 OVC017 11/10 Q1020 TEMPO 4000 -RA BECMG BKN025
  • 271930Z AUTO 27006KT 9999 SCT009 BKN013 BKN019 12/10 Q1020 TEMPO 4000 -RA BECMG BKN025
  • 271900Z AUTO 27008KT 9999 BKN010 BKN014 OVC021 12/11 Q1019 TEMPO 4000 -RA BECMG BKN025
  • 271830Z AUTO 27010KT 9999 OVC010 12/10 Q1019 TEMPO 4000 -RA BECMG BKN025
  • 271800Z AUTO 28010KT 9999 -RA BKN012/// BKN017/// OVC044/// ///TCU 12/11 Q1018 TEMPO 4000 -RA BECMG BKN025

TAF TAF LFBM
Valide du 27 à 21h jusqu'au 28 à 21h UTC


272000Z 2721/2821 25012KT 9999 OVC030
BECMG 2802/2804 22004KT 4000 RA SCT005 BKN020
BECMG 2807/2809 9999 NSW SCT015
BECMG 2812/2814 CAVOK



MET'MAP, la Météo Aéronautique d'un coup d'oeil ! - Copyright ORBIFLY Décembre 2007 - Disclaimer

ORBIFLY MET'MAP TEAM :

Programmation & Développement : Alexandra Zaïnal
Sur une idée originale de : Baudouin d'Aumeries
Assistance à la programmation : Marc-Olivier Méhu
Soutien technique & logistique : Manuel Goepfert

Contact : metmap@orbifly.com




SOURCES & CREDITS :

   NOAA